createdAt,value
2022-11-06T00:00:46.281Z,9.55
2022-11-06T00:01:47.901Z,13.70
2022-11-06T00:02:49.544Z,10.50
2022-11-06T00:03:54.613Z,13.05
2022-11-06T00:05:16.164Z,9.52
2022-11-06T00:06:36.253Z,9.17
2022-11-06T00:07:37.798Z,11.00
2022-11-06T00:08:40.991Z,11.63
2022-11-06T00:09:42.526Z,11.43
2022-11-06T00:10:44.101Z,12.32
2022-11-06T00:11:45.737Z,12.20
2022-11-06T00:12:47.334Z,9.90
2022-11-06T00:13:49.511Z,12.75
2022-11-06T00:14:51.045Z,11.32
2022-11-06T00:15:52.751Z,11.55
2022-11-06T00:16:54.384Z,9.73
2022-11-06T00:17:55.922Z,10.80
2022-11-06T00:19:00.270Z,10.32
2022-11-06T00:20:01.947Z,13.73
2022-11-06T00:21:13.794Z,11.82
2022-11-06T00:22:16.495Z,11.52
2022-11-06T00:23:18.062Z,11.25
2022-11-06T00:24:19.701Z,9.98
2022-11-06T00:25:21.247Z,11.45
2022-11-06T00:26:26.276Z,10.50
2022-11-06T00:27:28.377Z,9.53
2022-11-06T00:28:29.956Z,11.15
2022-11-06T00:29:31.520Z,9.82
2022-11-06T00:30:33.133Z,9.45
2022-11-06T00:31:37.065Z,10.40
2022-11-06T00:32:39.188Z,11.63
2022-11-06T00:33:40.918Z,10.73
2022-11-06T00:34:42.485Z,10.80
2022-11-06T00:35:44.043Z,13.15
2022-11-06T00:36:45.693Z,9.60
2022-11-06T00:37:47.237Z,12.07
2022-11-06T00:38:51.614Z,9.52
2022-11-06T00:39:53.190Z,9.05
2022-11-06T00:40:54.722Z,10.98
2022-11-06T00:41:56.327Z,12.25
2022-11-06T00:42:58.032Z,10.27
2022-11-06T00:44:00.906Z,10.20
2022-11-06T00:45:02.465Z,10.55
2022-11-06T00:46:08.181Z,10.60
2022-11-06T00:47:09.782Z,10.80
2022-11-06T00:48:11.635Z,11.73
2022-11-06T00:49:13.622Z,10.50
2022-11-06T00:50:15.412Z,10.65
2022-11-06T00:51:19.556Z,10.07
2022-11-06T00:52:21.117Z,11.35
2022-11-06T00:53:23.095Z,10.32
2022-11-06T00:54:24.803Z,10.07
2022-11-06T00:55:26.342Z,9.20
2022-11-06T00:56:27.985Z,10.00
2022-11-06T00:57:29.522Z,14.25
2022-11-06T00:58:31.129Z,8.90
2022-11-06T00:59:32.866Z,11.48
2022-11-06T01:00:34.417Z,9.18
2022-11-06T01:01:37.666Z,11.13
2022-11-06T01:02:39.435Z,9.80
2022-11-06T01:03:41.990Z,10.45
2022-11-06T01:04:43.533Z,10.70
2022-11-06T01:05:45.082Z,10.23
2022-11-06T01:06:49.240Z,8.88
2022-11-06T01:07:50.773Z,9.48
2022-11-06T01:08:52.976Z,9.37
2022-11-06T01:09:54.836Z,12.60
2022-11-06T01:10:56.379Z,10.60
2022-11-06T01:12:12.861Z,8.50
2022-11-06T01:13:15.411Z,10.48
2022-11-06T01:14:17.885Z,9.05
2022-11-06T01:15:19.446Z,9.77
2022-11-06T01:16:21.186Z,10.00
2022-11-06T01:17:22.828Z,9.77
2022-11-06T01:18:24.369Z,10.07
2022-11-06T01:19:25.962Z,10.90
2022-11-06T01:20:27.520Z,9.52
2022-11-06T01:21:34.276Z,9.48
2022-11-06T01:22:35.958Z,9.13
2022-11-06T01:23:37.530Z,9.80
2022-11-06T01:24:39.352Z,10.23
2022-11-06T01:25:40.977Z,9.52
2022-11-06T01:26:53.456Z,11.18
2022-11-06T01:28:04.254Z,10.82
2022-11-06T01:29:07.127Z,9.82
2022-11-06T01:30:09.183Z,9.47
2022-11-06T01:31:13.154Z,9.20
2022-11-06T01:32:14.910Z,9.25
2022-11-06T01:33:16.447Z,9.43
2022-11-06T01:34:18.241Z,11.48
2022-11-06T01:35:19.889Z,8.90
2022-11-06T01:36:21.671Z,10.57
2022-11-06T01:37:23.222Z,10.02
2022-11-06T01:38:24.776Z,10.45
2022-11-06T01:39:26.359Z,8.90
2022-11-06T01:40:27.945Z,9.00
2022-11-06T01:41:40.697Z,10.43
2022-11-06T01:42:42.249Z,8.82
2022-11-06T01:43:49.366Z,9.18
2022-11-06T01:45:05.932Z,9.93
2022-11-06T01:46:07.478Z,10.35
2022-11-06T01:47:27.276Z,11.05
2022-11-06T01:48:28.838Z,10.63
2022-11-06T01:49:34.732Z,10.52
2022-11-06T01:50:36.318Z,9.55
2022-11-06T01:51:49.751Z,8.27
2022-11-06T01:52:51.342Z,10.43
2022-11-06T01:53:52.904Z,10.77
2022-11-06T01:54:56.470Z,10.82
2022-11-06T01:55:59.312Z,9.32
2022-11-06T01:57:00.865Z,9.65
2022-11-06T01:58:03.191Z,7.63
2022-11-06T01:59:05.600Z,9.68
2022-11-06T02:00:08.029Z,8.73
2022-11-06T02:01:09.578Z,9.23
2022-11-06T02:02:11.613Z,9.10
2022-11-06T02:03:13.730Z,9.27
2022-11-06T02:04:24.994Z,7.88
2022-11-06T02:05:26.552Z,9.07
2022-11-06T02:06:28.141Z,7.95
2022-11-06T02:07:29.702Z,10.48
2022-11-06T02:08:31.303Z,10.60
2022-11-06T02:09:33.285Z,9.43
2022-11-06T02:10:34.833Z,10.45
2022-11-06T02:11:36.375Z,8.52
2022-11-06T02:12:59.362Z,10.10
2022-11-06T02:14:11.336Z,8.25
2022-11-06T02:15:42.050Z,8.38
2022-11-06T02:16:55.045Z,8.55
2022-11-06T02:18:25.470Z,8.70
2022-11-06T02:19:56.249Z,8.68
2022-11-06T02:21:09.931Z,9.65
2022-11-06T02:22:43.228Z,9.57
2022-11-06T02:23:58.836Z,9.55
2022-11-06T02:25:22.345Z,9.13
2022-11-06T02:26:50.976Z,8.70
2022-11-06T02:27:54.747Z,11.23
2022-11-06T02:28:59.479Z,9.43
2022-11-06T02:30:14.273Z,9.27
2022-11-06T02:31:17.225Z,8.35
2022-11-06T02:32:35.192Z,9.95
2022-11-06T02:33:38.702Z,8.93
2022-11-06T02:34:40.283Z,10.32
2022-11-06T02:35:50.548Z,19.65
2022-11-06T02:36:57.413Z,7.82
2022-11-06T02:38:01.341Z,8.90
2022-11-06T02:39:04.083Z,9.07
2022-11-06T02:40:07.354Z,9.40
2022-11-06T02:41:11.208Z,13.02
2022-11-06T02:42:12.971Z,9.07
2022-11-06T02:43:14.579Z,8.05
2022-11-06T02:44:20.715Z,10.70
2022-11-06T02:45:22.339Z,9.70
2022-11-06T02:46:28.875Z,8.88
2022-11-06T02:47:30.498Z,9.52
2022-11-06T02:48:34.862Z,9.83
2022-11-06T02:49:48.560Z,9.60
2022-11-06T02:50:50.681Z,8.77
2022-11-06T02:51:55.764Z,10.65
2022-11-06T02:53:07.114Z,9.13
2022-11-06T02:54:08.673Z,8.75
2022-11-06T02:55:10.222Z,9.90
2022-11-06T02:56:13.306Z,8.95
2022-11-06T02:57:15.852Z,8.77
2022-11-06T02:58:22.812Z,10.50
2022-11-06T02:59:33.295Z,9.67
2022-11-06T03:00:34.870Z,9.32
2022-11-06T03:01:40.410Z,9.18
2022-11-06T03:02:43.386Z,11.25
2022-11-06T03:03:48.259Z,9.57
2022-11-06T03:05:00.787Z,10.05
2022-11-06T03:06:06.775Z,8.80
2022-11-06T03:07:15.524Z,9.77
2022-11-06T03:08:21.744Z,9.35
2022-11-06T03:09:25.993Z,10.38
2022-11-06T03:10:30.752Z,8.00
2022-11-06T03:11:36.498Z,9.27
2022-11-06T03:12:41.536Z,9.13
2022-11-06T03:14:07.327Z,9.30
2022-11-06T03:15:33.286Z,9.48
2022-11-06T03:16:43.576Z,9.07
2022-11-06T03:17:51.660Z,8.60
2022-11-06T03:19:18.100Z,9.85
2022-11-06T03:20:28.606Z,10.65
2022-11-06T03:21:36.978Z,10.00
2022-11-06T03:22:44.386Z,8.40
2022-11-06T03:23:59.013Z,8.52
2022-11-06T03:25:11.902Z,9.50
2022-11-06T03:26:17.719Z,8.75
2022-11-06T03:27:49.852Z,9.48
2022-11-06T03:28:52.519Z,9.27
2022-11-06T03:30:01.348Z,10.05
2022-11-06T03:31:04.998Z,9.75
2022-11-06T03:32:17.854Z,9.98
2022-11-06T03:33:20.793Z,10.32
2022-11-06T03:34:30.263Z,9.07
2022-11-06T03:35:42.810Z,10.73
2022-11-06T03:36:45.000Z,10.32
2022-11-06T03:37:54.072Z,9.20
2022-11-06T03:38:58.940Z,9.02
2022-11-06T03:40:01.783Z,8.70
2022-11-06T03:41:14.989Z,10.07
2022-11-06T03:42:20.627Z,9.00
2022-11-06T03:43:23.507Z,11.73
2022-11-06T03:44:27.862Z,8.75
2022-11-06T03:45:29.962Z,10.37
2022-11-06T03:46:31.535Z,8.55
2022-11-06T03:47:41.479Z,9.13
2022-11-06T03:48:46.039Z,10.13
2022-11-06T03:49:50.676Z,9.45
2022-11-06T03:51:04.331Z,10.75
2022-11-06T03:52:08.775Z,10.55
2022-11-06T03:53:16.003Z,10.27
2022-11-06T03:54:20.065Z,9.48
2022-11-06T03:55:24.960Z,9.40
2022-11-06T03:56:31.242Z,11.27
2022-11-06T03:57:57.124Z,11.45
2022-11-06T03:58:58.798Z,10.32
2022-11-06T04:00:01.236Z,10.68
2022-11-06T04:01:04.108Z,10.52
2022-11-06T04:02:05.852Z,8.88
2022-11-06T04:03:28.610Z,10.15
2022-11-06T04:04:43.759Z,9.75
2022-11-06T04:05:51.099Z,9.95
2022-11-06T04:06:55.637Z,9.60
2022-11-06T04:08:16.060Z,11.80
2022-11-06T04:09:36.030Z,9.15
2022-11-06T04:10:57.612Z,10.25
2022-11-06T04:12:18.606Z,10.07
2022-11-06T04:13:38.847Z,10.77
2022-11-06T04:14:42.181Z,9.00
2022-11-06T04:15:48.126Z,11.27
2022-11-06T04:16:51.948Z,9.85
2022-11-06T04:17:53.542Z,10.75
2022-11-06T04:18:55.177Z,10.48
2022-11-06T04:19:58.675Z,9.03
2022-11-06T04:21:27.942Z,16.65
2022-11-06T04:22:36.511Z,9.88
2022-11-06T04:24:21.100Z,9.88
2022-11-06T04:25:55.397Z,11.02
2022-11-06T04:27:22.789Z,9.70
2022-11-06T04:28:33.234Z,11.52
2022-11-06T04:29:55.715Z,9.77
2022-11-06T04:31:25.737Z,10.45
2022-11-06T04:32:37.496Z,12.00
2022-11-06T04:33:59.071Z,12.27
2022-11-06T04:35:09.955Z,10.27
2022-11-06T04:36:41.516Z,10.85
2022-11-06T04:37:56.895Z,10.25
2022-11-06T04:39:21.213Z,9.77
2022-11-06T04:40:25.606Z,10.30
2022-11-06T04:41:47.139Z,10.02
2022-11-06T04:43:06.688Z,10.50
2022-11-06T04:44:17.427Z,10.13
2022-11-06T04:45:30.265Z,9.35
2022-11-06T04:46:38.039Z,9.70
2022-11-06T04:47:39.677Z,10.98
2022-11-06T04:48:41.228Z,9.80
2022-11-06T04:49:42.994Z,12.18
2022-11-06T04:50:48.494Z,10.15
2022-11-06T04:51:50.088Z,10.82
2022-11-06T04:52:51.951Z,10.35
2022-11-06T04:53:53.519Z,13.73
2022-11-06T04:54:55.777Z,9.45
2022-11-06T04:56:01.195Z,11.02
2022-11-06T04:57:02.789Z,10.30
2022-11-06T04:58:04.309Z,11.25
2022-11-06T04:59:05.935Z,9.70
2022-11-06T05:00:08.035Z,10.90
2022-11-06T05:01:09.987Z,14.10
2022-11-06T05:02:11.683Z,9.73
2022-11-06T05:03:14.339Z,9.98
2022-11-06T05:04:15.920Z,10.52
2022-11-06T05:05:17.590Z,11.25
2022-11-06T05:06:19.223Z,12.10
2022-11-06T05:07:20.796Z,10.90
2022-11-06T05:08:22.405Z,10.05
2022-11-06T05:09:24.323Z,10.63
2022-11-06T05:10:25.893Z,11.98
2022-11-06T05:11:27.536Z,10.05
2022-11-06T05:12:29.087Z,10.73
2022-11-06T05:13:30.639Z,11.20
2022-11-06T05:14:32.718Z,10.98
2022-11-06T05:15:34.255Z,10.93
2022-11-06T05:16:35.894Z,10.35
2022-11-06T05:17:37.438Z,12.33
2022-11-06T05:18:39.174Z,12.35
2022-11-06T05:19:40.730Z,9.98
2022-11-06T05:20:42.276Z,12.40
2022-11-06T05:22:02.616Z,11.77
2022-11-06T05:23:04.199Z,10.70
2022-11-06T05:24:06.113Z,11.77
2022-11-06T05:25:08.099Z,12.60
2022-11-06T05:26:09.665Z,12.43
2022-11-06T05:27:11.206Z,11.88
2022-11-06T05:28:12.980Z,12.73
2022-11-06T05:29:14.789Z,11.98
2022-11-06T05:30:16.441Z,11.27
2022-11-06T05:31:18.261Z,13.23
2022-11-06T05:32:19.814Z,10.00
2022-11-06T05:33:21.371Z,12.20
2022-11-06T05:34:22.999Z,12.02
2022-11-06T05:35:24.649Z,10.15
2022-11-06T05:36:26.298Z,10.48
2022-11-06T05:37:28.163Z,10.10
2022-11-06T05:38:29.933Z,11.87
2022-11-06T05:39:31.562Z,12.05
2022-11-06T05:40:33.111Z,10.45
2022-11-06T05:41:34.643Z,11.70
2022-11-06T05:42:40.012Z,13.27
2022-11-06T05:43:41.579Z,10.88
2022-11-06T05:44:43.329Z,12.80
2022-11-06T05:45:44.898Z,11.50
2022-11-06T05:46:49.209Z,12.95
2022-11-06T05:47:51.304Z,10.95
2022-11-06T05:48:52.876Z,11.50
2022-11-06T05:49:54.850Z,11.15
2022-11-06T05:51:03.644Z,11.15
2022-11-06T05:52:05.185Z,11.35
2022-11-06T05:53:06.818Z,11.90
2022-11-06T05:54:08.365Z,9.82
2022-11-06T05:55:14.384Z,11.20
2022-11-06T05:56:16.561Z,11.18
2022-11-06T05:57:18.146Z,12.18
2022-11-06T05:58:20.115Z,11.68
2022-11-06T05:59:21.675Z,11.20
2022-11-06T06:00:23.308Z,10.23
2022-11-06T06:01:25.033Z,14.35
2022-11-06T06:02:26.730Z,11.90
2022-11-06T06:03:28.445Z,12.07
2022-11-06T06:04:29.967Z,11.45
2022-11-06T06:05:31.520Z,11.02
2022-11-06T06:06:33.486Z,12.82
2022-11-06T06:07:35.222Z,11.55
2022-11-06T06:08:36.774Z,12.23
2022-11-06T06:09:38.353Z,12.23
2022-11-06T06:10:43.466Z,10.68
2022-11-06T06:11:45.102Z,9.27
2022-11-06T06:12:46.731Z,15.13
2022-11-06T06:13:48.546Z,12.90
2022-11-06T06:14:50.662Z,12.10
2022-11-06T06:15:52.293Z,11.88
2022-11-06T06:16:53.907Z,10.15
2022-11-06T06:17:55.459Z,10.75
2022-11-06T06:18:57.078Z,10.38
2022-11-06T06:19:58.994Z,12.03
2022-11-06T06:21:00.571Z,12.30
2022-11-06T06:22:02.216Z,9.27
2022-11-06T06:23:03.853Z,11.25
2022-11-06T06:24:05.731Z,13.15
2022-11-06T06:25:14.679Z,13.48
2022-11-06T06:26:22.867Z,11.75
2022-11-06T06:27:27.657Z,11.90
2022-11-06T06:28:29.234Z,11.82
2022-11-06T06:29:30.785Z,11.05
2022-11-06T06:30:32.329Z,12.33
2022-11-06T06:31:34.076Z,12.50
2022-11-06T06:32:35.619Z,12.15
2022-11-06T06:33:37.185Z,12.40
2022-11-06T06:34:38.721Z,12.90
2022-11-06T06:35:40.318Z,13.52
2022-11-06T06:36:41.917Z,11.32
2022-11-06T06:37:50.180Z,11.57
2022-11-06T06:38:51.810Z,11.13
2022-11-06T06:39:53.355Z,10.90
2022-11-06T06:40:54.996Z,10.33
2022-11-06T06:41:56.543Z,11.18
2022-11-06T06:42:58.239Z,10.85
2022-11-06T06:43:59.991Z,14.40
2022-11-06T06:45:01.537Z,11.80
2022-11-06T06:46:04.827Z,10.95
2022-11-06T06:47:06.453Z,12.77
2022-11-06T06:48:08.215Z,12.60
2022-11-06T06:49:09.916Z,10.73
2022-11-06T06:50:11.505Z,11.77
2022-11-06T06:51:13.134Z,10.67
2022-11-06T06:52:14.793Z,10.02
2022-11-06T06:53:16.431Z,10.88
2022-11-06T06:54:18.092Z,12.27
2022-11-06T06:55:19.657Z,10.93
2022-11-06T06:56:21.209Z,12.85
2022-11-06T06:57:22.831Z,11.43
2022-11-06T06:58:24.891Z,13.15
2022-11-06T06:59:28.239Z,12.95
2022-11-06T07:00:29.894Z,12.68
2022-11-06T07:01:31.696Z,10.30
2022-11-06T07:02:33.555Z,16.65
2022-11-06T07:03:35.130Z,12.90
2022-11-06T07:04:36.748Z,12.98
2022-11-06T07:05:38.317Z,12.07
2022-11-06T07:06:39.901Z,14.52
2022-11-06T07:07:41.451Z,11.85
2022-11-06T07:08:43.052Z,12.10
2022-11-06T07:09:44.641Z,14.27
2022-11-06T07:10:46.254Z,13.70
2022-11-06T07:11:47.815Z,13.97
2022-11-06T07:12:49.417Z,15.18
2022-11-06T07:13:50.991Z,13.82
2022-11-06T07:14:52.539Z,11.88
2022-11-06T07:15:54.261Z,12.65
2022-11-06T07:16:55.804Z,12.07
2022-11-06T07:18:06.785Z,14.43
2022-11-06T07:19:08.325Z,13.18
2022-11-06T07:20:10.305Z,10.68
2022-11-06T07:21:12.627Z,11.75
2022-11-06T07:22:14.211Z,12.13
2022-11-06T07:23:15.787Z,19.95
2022-11-06T07:24:18.216Z,13.07
2022-11-06T07:25:19.770Z,12.55
2022-11-06T07:26:21.406Z,11.35
2022-11-06T07:27:22.968Z,11.73
2022-11-06T07:28:24.545Z,14.98
2022-11-06T07:29:26.088Z,14.48
2022-11-06T07:30:28.037Z,12.38
2022-11-06T07:31:31.313Z,12.82
2022-11-06T07:32:32.956Z,11.97
2022-11-06T07:33:34.758Z,12.02
2022-11-06T07:34:38.923Z,11.82
2022-11-06T07:35:40.946Z,11.18
2022-11-06T07:36:42.547Z,14.57
2022-11-06T07:37:44.577Z,15.73
2022-11-06T07:38:46.175Z,13.15
2022-11-06T07:39:47.712Z,24.35
2022-11-06T07:40:49.322Z,19.50
2022-11-06T07:41:50.877Z,20.08
2022-11-06T07:42:52.437Z,13.57
2022-11-06T07:43:54.059Z,12.85
2022-11-06T07:44:55.767Z,12.38
2022-11-06T07:46:01.705Z,12.55
2022-11-06T07:47:03.350Z,12.60
2022-11-06T07:48:05.749Z,15.27
2022-11-06T07:49:07.287Z,14.88
2022-11-06T07:50:09.002Z,14.90
2022-11-06T07:51:10.858Z,17.40
2022-11-06T07:52:12.488Z,13.15
2022-11-06T07:53:14.301Z,12.17
2022-11-06T07:54:16.173Z,13.13
2022-11-06T07:55:17.800Z,15.48
2022-11-06T07:56:19.385Z,14.02
2022-11-06T07:57:20.941Z,15.75
2022-11-06T07:58:22.997Z,14.85
2022-11-06T07:59:24.572Z,16.67
2022-11-06T08:00:26.229Z,17.20
2022-11-06T08:01:27.908Z,23.48
2022-11-06T08:02:29.645Z,20.55
2022-11-06T08:03:31.392Z,15.13
2022-11-06T08:04:33.041Z,20.60
2022-11-06T08:05:34.633Z,17.00
2022-11-06T08:06:36.168Z,15.27
2022-11-06T08:07:37.849Z,15.75
2022-11-06T08:08:39.424Z,33.58
2022-11-06T08:09:41.012Z,16.90
2022-11-06T08:10:43.816Z,19.90
2022-11-06T08:11:45.398Z,16.17
2022-11-06T08:12:46.954Z,17.83
2022-11-06T08:13:48.501Z,14.07
2022-11-06T08:14:50.097Z,14.45
2022-11-06T08:15:51.710Z,14.23
2022-11-06T08:16:53.266Z,14.10
2022-11-06T08:17:54.826Z,19.05
2022-11-06T08:18:56.623Z,16.08
2022-11-06T08:19:58.232Z,17.58
2022-11-06T08:21:00.012Z,17.13
2022-11-06T08:22:01.584Z,42.40
2022-11-06T08:23:04.105Z,15.20
2022-11-06T08:24:05.963Z,20.63
2022-11-06T08:25:08.357Z,21.13
2022-11-06T08:26:10.559Z,38.35
2022-11-06T08:27:12.115Z,19.05
2022-11-06T08:28:13.987Z,27.40
2022-11-06T08:29:16.269Z,20.67
2022-11-06T08:30:17.833Z,16.35
2022-11-06T08:31:21.222Z,16.27
2022-11-06T08:32:22.810Z,19.70
2022-11-06T08:33:24.548Z,18.20
2022-11-06T08:34:26.087Z,16.23
2022-11-06T08:35:27.661Z,19.58
2022-11-06T08:36:29.233Z,17.60
2022-11-06T08:37:30.774Z,20.55
2022-11-06T08:38:32.391Z,17.60
2022-11-06T08:39:33.997Z,17.48
2022-11-06T08:40:37.280Z,15.57
2022-11-06T08:41:39.815Z,17.10
2022-11-06T08:42:41.406Z,16.30
2022-11-06T08:43:43.023Z,22.73
2022-11-06T08:44:44.639Z,15.70
2022-11-06T08:45:46.210Z,23.95
2022-11-06T08:46:51.921Z,18.88
2022-11-06T08:47:53.901Z,17.38
2022-11-06T08:48:55.540Z,17.05
2022-11-06T08:49:57.098Z,19.25
2022-11-06T08:50:58.701Z,15.65
2022-11-06T08:52:00.287Z,17.98
2022-11-06T08:53:04.214Z,19.08
2022-11-06T08:54:06.096Z,16.35
2022-11-06T08:55:08.062Z,17.00
2022-11-06T08:56:09.626Z,21.50
2022-11-06T08:57:11.179Z,18.15
2022-11-06T08:58:14.129Z,17.45
2022-11-06T08:59:15.804Z,23.02
2022-11-06T09:00:17.498Z,16.33
2022-11-06T09:01:19.156Z,18.08
2022-11-06T09:02:20.822Z,19.13
2022-11-06T09:03:22.492Z,18.38
2022-11-06T09:04:24.058Z,18.35
2022-11-06T09:05:25.772Z,22.13
2022-11-06T09:06:27.387Z,18.85
2022-11-06T09:07:28.966Z,17.92
2022-11-06T09:08:30.518Z,16.77
2022-11-06T09:09:32.181Z,17.35
2022-11-06T09:10:33.818Z,16.38
2022-11-06T09:11:35.403Z,19.42
2022-11-06T09:12:36.971Z,18.48
2022-11-06T09:13:38.638Z,20.58
2022-11-06T09:14:40.309Z,21.77
2022-11-06T09:15:41.925Z,23.90
2022-11-06T09:16:43.526Z,22.08
2022-11-06T09:17:48.619Z,17.83
2022-11-06T09:18:50.188Z,15.15
2022-11-06T09:19:51.745Z,20.92
2022-11-06T09:20:56.877Z,28.50
2022-11-06T09:21:58.510Z,21.77
2022-11-06T09:23:01.816Z,20.80
2022-11-06T09:24:03.530Z,16.63
2022-11-06T09:25:05.651Z,15.93
2022-11-06T09:26:07.211Z,20.23
2022-11-06T09:27:08.840Z,26.50
2022-11-06T09:28:10.624Z,27.42
2022-11-06T09:29:12.257Z,17.02
2022-11-06T09:30:14.797Z,35.88
2022-11-06T09:31:16.445Z,47.58
2022-11-06T09:32:18.066Z,29.67
2022-11-06T09:33:20.186Z,24.17
2022-11-06T09:34:22.126Z,19.75
2022-11-06T09:35:24.673Z,25.45
2022-11-06T09:36:26.257Z,42.33
2022-11-06T09:37:27.876Z,51.20
2022-11-06T09:38:29.507Z,25.63
2022-11-06T09:39:31.104Z,18.70
2022-11-06T09:40:51.186Z,38.03
2022-11-06T09:42:00.189Z,20.40
2022-11-06T09:44:04.063Z,19.17
2022-11-06T09:45:22.960Z,15.43
2022-11-06T09:46:28.256Z,19.35
2022-11-06T09:47:32.204Z,19.98
2022-11-06T09:48:39.893Z,19.07
2022-11-06T09:49:48.457Z,17.13
2022-11-06T09:51:01.627Z,16.65
2022-11-06T09:52:08.745Z,16.83
2022-11-06T09:53:18.430Z,19.15
2022-11-06T09:54:23.996Z,14.90
2022-11-06T09:55:29.532Z,28.85
2022-11-06T09:56:34.254Z,18.58
2022-11-06T09:57:38.782Z,16.40
2022-11-06T09:58:42.091Z,19.02
2022-11-06T09:59:43.658Z,20.23
2022-11-06T10:00:45.398Z,21.23
2022-11-06T10:01:55.378Z,19.58
2022-11-06T10:03:20.025Z,21.10
2022-11-06T10:04:42.134Z,21.83
2022-11-06T10:05:43.896Z,23.52
2022-11-06T10:06:45.486Z,22.73
2022-11-06T10:07:47.091Z,34.67
2022-11-06T10:08:48.661Z,40.92
2022-11-06T10:09:50.214Z,48.25
2022-11-06T10:11:17.437Z,62.70
2022-11-06T10:12:28.929Z,27.40
2022-11-06T10:13:54.337Z,46.95
2022-11-06T10:15:18.081Z,54.20
2022-11-06T10:16:36.359Z,25.60
2022-11-06T10:17:53.890Z,29.83
2022-11-06T10:19:20.181Z,19.58
2022-11-06T10:20:29.097Z,16.35
2022-11-06T10:22:10.701Z,14.68
2022-11-06T10:23:28.323Z,44.00
2022-11-06T10:24:45.998Z,15.70
2022-11-06T10:26:18.803Z,15.93
2022-11-06T10:27:29.169Z,18.60
2022-11-06T10:28:50.952Z,16.88
2022-11-06T10:30:13.267Z,15.48
2022-11-06T10:31:18.806Z,16.55
2022-11-06T10:32:38.918Z,17.70
2022-11-06T10:34:06.815Z,15.40
2022-11-06T10:35:35.778Z,15.23
2022-11-06T10:36:49.524Z,17.10
2022-11-06T10:38:01.527Z,15.67
2022-11-06T10:39:04.079Z,14.88
2022-11-06T10:40:06.169Z,33.10
2022-11-06T10:41:17.736Z,17.20
2022-11-06T10:42:20.839Z,16.50
2022-11-06T10:43:30.327Z,15.63
2022-11-06T10:44:52.086Z,42.15
2022-11-06T10:46:35.451Z,15.10
2022-11-06T10:47:40.135Z,14.73
2022-11-06T10:48:46.092Z,23.95
2022-11-06T10:49:52.844Z,19.43
2022-11-06T10:51:06.540Z,15.27
2022-11-06T10:52:30.121Z,12.70
2022-11-06T10:53:55.683Z,17.23
2022-11-06T10:55:24.423Z,19.42
2022-11-06T10:56:39.255Z,24.85
2022-11-06T10:57:51.031Z,21.55
2022-11-06T10:58:52.852Z,17.60
2022-11-06T10:59:54.543Z,15.30
2022-11-06T11:01:01.160Z,18.58
2022-11-06T11:02:03.566Z,16.43
2022-11-06T11:03:07.121Z,16.05
2022-11-06T11:04:08.747Z,15.20
2022-11-06T11:05:14.802Z,16.33
2022-11-06T11:06:16.583Z,15.32
2022-11-06T11:07:21.655Z,18.45
2022-11-06T11:08:51.062Z,15.93
2022-11-06T11:09:52.806Z,15.68
2022-11-06T11:11:05.368Z,15.48
2022-11-06T11:12:19.123Z,17.10
2022-11-06T11:13:20.959Z,18.27
2022-11-06T11:14:26.945Z,17.05
2022-11-06T11:15:43.915Z,14.57
2022-11-06T11:16:45.470Z,18.77
2022-11-06T11:18:12.411Z,14.88
2022-11-06T11:19:44.213Z,16.60
2022-11-06T11:20:52.461Z,17.80
2022-11-06T11:21:58.441Z,14.23
2022-11-06T11:23:15.748Z,16.13
2022-11-06T11:24:17.319Z,13.50
2022-11-06T11:25:25.523Z,13.57
2022-11-06T11:26:28.451Z,13.85
2022-11-06T11:27:37.568Z,11.82
2022-11-06T11:28:39.767Z,15.35
2022-11-06T11:29:50.059Z,15.15
2022-11-06T11:30:56.229Z,15.15
2022-11-06T11:32:00.784Z,12.68
2022-11-06T11:33:02.857Z,19.52
2022-11-06T11:34:06.063Z,15.00
2022-11-06T11:35:09.397Z,14.10
2022-11-06T11:36:11.032Z,14.50
2022-11-06T11:37:26.420Z,14.00
2022-11-06T11:38:28.384Z,12.45
2022-11-06T11:39:31.044Z,15.30
2022-11-06T11:40:37.882Z,20.88
2022-11-06T11:41:39.773Z,20.33
2022-11-06T11:42:41.548Z,18.15
2022-11-06T11:43:43.494Z,16.20
2022-11-06T11:44:45.191Z,14.23
2022-11-06T11:46:05.712Z,14.20
2022-11-06T11:47:19.731Z,11.53
2022-11-06T11:48:21.279Z,13.15
2022-11-06T11:49:30.856Z,13.90
2022-11-06T11:50:33.233Z,13.15
2022-11-06T11:51:38.738Z,13.60
2022-11-06T11:52:42.715Z,15.02
2022-11-06T11:53:44.515Z,12.48
2022-11-06T11:54:50.839Z,19.02
2022-11-06T11:55:53.119Z,13.38
2022-11-06T11:57:08.401Z,14.70
2022-11-06T11:58:26.099Z,13.87
2022-11-06T11:59:31.584Z,13.23
2022-11-06T12:00:33.398Z,11.60
2022-11-06T12:01:40.111Z,11.93
2022-11-06T12:02:47.029Z,11.65
2022-11-06T12:03:50.131Z,12.77
2022-11-06T12:04:54.071Z,11.73
2022-11-06T12:06:10.422Z,12.07
2022-11-06T12:07:33.037Z,11.60
2022-11-06T12:08:34.648Z,11.45
2022-11-06T12:09:42.291Z,18.53
2022-11-06T12:10:43.960Z,13.27
2022-11-06T12:11:45.782Z,19.58
2022-11-06T12:12:50.531Z,22.08
2022-11-06T12:14:16.561Z,15.88
2022-11-06T12:15:28.581Z,11.75
2022-11-06T12:16:30.194Z,17.52
2022-11-06T12:17:33.533Z,11.15
2022-11-06T12:18:36.320Z,13.25
2022-11-06T12:19:38.173Z,18.77
2022-11-06T12:21:02.309Z,35.27
2022-11-06T12:22:07.122Z,13.60
2022-11-06T12:23:34.477Z,14.85
2022-11-06T12:24:54.569Z,12.90
2022-11-06T12:26:09.782Z,11.20
2022-11-06T12:27:15.297Z,14.85
2022-11-06T12:28:17.666Z,11.55
2022-11-06T12:29:24.220Z,13.73
2022-11-06T12:30:26.273Z,10.70
2022-11-06T12:31:46.589Z,13.63
2022-11-06T12:33:11.484Z,11.10
2022-11-06T12:34:21.244Z,13.38
2022-11-06T12:35:42.578Z,14.80
2022-11-06T12:36:52.936Z,16.10
2022-11-06T12:38:05.351Z,13.35
2022-11-06T12:39:12.639Z,14.02
2022-11-06T12:40:24.984Z,14.98
2022-11-06T12:41:29.904Z,12.10
2022-11-06T12:42:31.956Z,11.85
2022-11-06T12:43:39.045Z,9.70
2022-11-06T12:44:40.689Z,11.03
2022-11-06T12:45:44.049Z,12.85
2022-11-06T12:46:53.744Z,13.85
2022-11-06T12:47:59.575Z,11.88
2022-11-06T12:49:10.146Z,11.68
2022-11-06T12:50:37.031Z,12.45
2022-11-06T12:52:03.007Z,11.05
2022-11-06T12:53:39.969Z,19.73
2022-11-06T12:55:20.315Z,72.07
2022-11-06T12:56:36.878Z,53.58
2022-11-06T12:57:38.508Z,67.33
2022-11-06T12:58:52.279Z,54.08
2022-11-06T13:00:09.860Z,47.40
2022-11-06T13:01:28.186Z,51.67
2022-11-06T13:02:42.183Z,34.92
2022-11-06T13:03:59.666Z,18.83
2022-11-06T13:05:19.353Z,17.80
2022-11-06T13:07:01.376Z,19.88
2022-11-06T13:08:12.185Z,36.92
2022-11-06T13:09:21.431Z,38.15
2022-11-06T13:10:33.748Z,38.53
2022-11-06T13:11:55.991Z,43.03
2022-11-06T13:13:15.240Z,31.98
2022-11-06T13:14:19.719Z,35.55
2022-11-06T13:15:29.465Z,28.83
2022-11-06T13:16:31.075Z,17.23
2022-11-06T13:17:36.840Z,10.65
2022-11-06T13:18:43.429Z,12.00
2022-11-06T13:19:45.044Z,13.98
2022-11-06T13:21:01.010Z,26.67
2022-11-06T13:22:15.371Z,22.92
2022-11-06T13:23:42.618Z,25.67
2022-11-06T13:25:35.136Z,24.80
2022-11-06T13:26:50.999Z,14.85
2022-11-06T13:27:57.621Z,13.07
2022-11-06T13:29:00.941Z,11.00
2022-11-06T13:30:13.398Z,12.10
2022-11-06T13:31:16.189Z,14.35
2022-11-06T13:32:20.134Z,13.32
2022-11-06T13:33:27.041Z,11.93
2022-11-06T13:34:37.371Z,9.77
2022-11-06T13:35:40.543Z,11.23
2022-11-06T13:36:42.253Z,11.52
2022-11-06T13:37:45.913Z,11.13
2022-11-06T13:38:55.366Z,13.18
2022-11-06T13:40:04.438Z,9.48
2022-11-06T13:41:21.850Z,11.48
2022-11-06T13:42:27.234Z,9.98
2022-11-06T13:43:30.280Z,11.52
2022-11-06T13:44:32.325Z,11.35
2022-11-06T13:45:43.982Z,10.67
2022-11-06T13:46:56.770Z,11.02
2022-11-06T13:48:06.137Z,12.65
2022-11-06T13:49:19.242Z,11.70
2022-11-06T13:50:43.199Z,12.65
2022-11-06T13:51:58.703Z,19.20
2022-11-06T13:53:15.749Z,13.95
2022-11-06T13:54:38.163Z,13.57
2022-11-06T13:56:16.016Z,13.85
2022-11-06T13:57:36.310Z,13.98
2022-11-06T13:59:10.520Z,12.83
2022-11-06T14:00:22.885Z,13.32
2022-11-06T14:01:30.773Z,16.52
2022-11-06T14:02:44.755Z,13.25
2022-11-06T14:03:55.299Z,13.10
2022-11-06T14:05:18.199Z,16.30
2022-11-06T14:06:21.729Z,14.77
2022-11-06T14:07:23.775Z,13.95
2022-11-06T14:08:53.329Z,15.68
2022-11-06T14:09:55.005Z,14.88
2022-11-06T14:10:58.908Z,16.30
2022-11-06T14:12:02.619Z,19.73
2022-11-06T14:13:05.067Z,17.17
2022-11-06T14:14:14.573Z,21.73
2022-11-06T14:15:21.843Z,19.65
2022-11-06T14:16:27.411Z,18.60
2022-11-06T14:17:28.962Z,19.38
2022-11-06T14:18:31.607Z,18.17
2022-11-06T14:19:33.307Z,19.92
2022-11-06T14:20:38.977Z,21.95
2022-11-06T14:21:47.373Z,22.30
2022-11-06T14:22:49.294Z,20.65
2022-11-06T14:24:15.104Z,22.30